Time;durP1;ratioP1;P1;durP2;ratioP2;P2;SDS_P1;SDS_P2;PMS_P1;PMS_P2;Temp;Humidity;BMP_temperature;BMP_pressure;BME280_temperature;BME280_humidity;BME280_pressure;Samples;Min_cycle;Max_cycle;Signal;HPM_P1;HPM_P2
2022/08/31 00:04:44;;;;;;;1.63;0.80;;;16.20;99.90;;;;;;5016208;28;20284;-64
2022/08/31 00:07:10;;;;;;;0.95;0.52;;;16.10;99.90;;;;;;5034152;28;20040;-64
2022/08/31 00:09:35;;;;;;;2.50;0.82;;;16.10;99.90;;;;;;5034060;28;20049;-64
2022/08/31 00:12:01;;;;;;;2.55;1.52;;;16.10;99.90;;;;;;5016648;28;20083;-64
2022/08/31 00:14:27;;;;;;;2.70;0.75;;;;;;;;;;5034323;28;20487;-64
2022/08/31 00:16:53;;;;;;;4.15;0.80;;;16.20;99.90;;;;;;5034175;28;20042;-64
2022/08/31 00:19:19;;;;;;;1.80;0.70;;;15.90;99.90;;;;;;5015868;28;20083;-64
2022/08/31 00:21:44;;;;;;;2.05;0.85;;;16.20;99.90;;;;;;5033932;28;20041;-64
2022/08/31 00:24:10;;;;;;;1.65;0.90;;;15.80;99.90;;;;;;5033689;28;20041;-64
2022/08/31 00:26:36;;;;;;;2.63;0.85;;;15.90;99.90;;;;;;5016312;28;20037;-64
2022/08/31 00:29:03;;;;;;;3.63;0.82;;;16.00;99.90;;;;;;5016404;28;20040;-64
2022/08/31 00:31:29;;;;;;;1.92;0.70;;;15.90;99.90;;;;;;5033629;28;20376;-64
2022/08/31 00:33:55;;;;;;;4.00;0.90;;;15.80;99.90;;;;;;5033894;28;20039;-64
2022/08/31 00:36:23;;;;;;;2.83;0.75;;;15.80;99.90;;;;;;5033607;28;20041;-64
2022/08/31 00:38:49;;;;;;;2.00;1.00;;;15.70;99.90;;;;;;5015970;28;20045;-64
2022/08/31 00:41:17;;;;;;;2.65;0.80;;;15.70;99.90;;;;;;5015764;28;20064;-64
2022/08/31 00:43:43;;;;;;;2.95;1.00;;;15.60;99.90;;;;;;5015997;28;20056;-64
2022/08/31 00:46:10;;;;;;;1.35;0.90;;;15.80;99.90;;;;;;5015748;28;20052;-64
2022/08/31 00:48:43;;;;;;;3.38;0.73;;;15.70;99.90;;;;;;5015772;28;20041;-64
2022/08/31 00:51:09;;;;;;;0.93;0.60;;;15.80;99.90;;;;;;5033030;28;20229;-64
2022/08/31 00:53:36;;;;;;;2.45;0.80;;;15.90;99.90;;;;;;5033493;28;20060;-64
2022/08/31 00:56:02;;;;;;;3.25;0.80;;;15.70;99.90;;;;;;5046070;28;20067;-64
2022/08/31 00:58:27;;;;;;;1.40;0.70;;;15.70;99.90;;;;;;5016492;28;20045;-64
2022/08/31 01:00:53;;;;;;;2.53;0.70;;;15.30;99.90;;;;;;5033268;28;20419;-64
2022/08/31 01:03:20;;;;;;;1.60;1.08;;;15.50;99.90;;;;;;5032891;28;20077;-64
2022/08/31 01:05:46;;;;;;;1.40;0.90;;;15.50;99.90;;;;;;5015680;28;20124;-64
2022/08/31 01:08:12;;;;;;;2.33;0.95;;;15.50;99.90;;;;;;5033458;28;20457;-64
2022/08/31 01:10:42;;;;;;;2.72;1.00;;;15.40;99.90;;;;;;5033288;28;20084;-64
2022/08/31 01:13:11;;;;;;;2.22;1.20;;;15.60;99.90;;;;;;5033467;28;20444;-64
2022/08/31 01:15:41;;;;;;;2.25;1.10;;;15.50;99.90;;;;;;5017493;28;20049;-64
2022/08/31 01:18:07;;;;;;;2.42;1.00;;;15.20;99.90;;;;;;5026586;28;20112;-64
2022/08/31 01:21:08;;;;;;;2.55;0.93;;;15.30;99.90;;;;;;5015195;28;20051;-64
2022/08/31 01:23:41;;;;;;;3.38;1.20;;;15.30;99.90;;;;;;5044578;28;20525;-64
2022/08/31 01:26:09;;;;;;;1.77;1.23;;;15.30;99.90;;;;;;5034337;28;20499;-64
2022/08/31 01:28:35;;;;;;;2.90;1.20;;;15.20;99.90;;;;;;5032811;28;20041;-64
2022/08/31 01:31:09;;;;;;;3.00;1.25;;;15.20;99.90;;;;;;5035915;28;20104;-64
2022/08/31 01:33:38;;;;;;;1.92;1.20;;;15.20;99.90;;;;;;5019306;28;20053;-64
2022/08/31 01:36:06;;;;;;;2.63;1.45;;;15.00;99.90;;;;;;5018974;28;20045;-64
2022/08/31 01:38:33;;;;;;;2.13;1.27;;;15.20;99.90;;;;;;5019334;28;20440;-64
2022/08/31 01:41:02;;;;;;;2.25;1.40;;;15.00;99.90;;;;;;5018967;28;20045;-64
2022/08/31 01:43:30;;;;;;;1.88;1.23;;;15.00;99.90;;;;;;5044022;28;20049;-64
2022/08/31 01:45:55;;;;;;;2.47;1.55;;;16.70;99.90;;;;;;5042771;28;20543;-64
2022/08/31 01:48:22;;;;;;;2.28;1.58;;;15.00;99.90;;;;;;5036471;28;20117;-64
2022/08/31 01:50:48;;;;;;;2.40;1.20;;;14.80;99.90;;;;;;5036509;28;20033;-64
2022/08/31 01:53:14;;;;;;;3.35;1.70;;;14.70;99.90;;;;;;5036371;28;20030;-64
2022/08/31 01:55:40;;;;;;;2.50;1.48;;;14.80;99.90;;;;;;5028190;28;20119;-64
2022/08/31 01:58:06;;;;;;;2.42;1.27;;;14.80;99.90;;;;;;5040245;28;20044;-64
2022/08/31 02:00:32;;;;;;;2.35;1.60;;;14.70;99.90;;;;;;5036109;28;20044;-64
2022/08/31 02:03:00;;;;;;;2.15;1.27;;;14.80;99.90;;;;;;5018299;28;20053;-64
2022/08/31 02:05:27;;;;;;;1.77;1.50;;;15.00;99.90;;;;;;5014501;28;20061;-64
2022/08/31 02:07:53;;;;;;;1.48;1.10;;;14.70;99.90;;;;;;5036202;28;20113;-64
2022/08/31 02:10:19;;;;;;;1.70;1.42;;;14.70;99.90;;;;;;5032304;28;20041;-64
2022/08/31 02:12:44;;;;;;;2.58;1.40;;;14.40;99.90;;;;;;5036040;28;20472;-64
2022/08/31 02:15:11;;;;;;;1.73;1.25;;;14.50;99.90;;;;;;5018386;28;20053;-64
2022/08/31 02:17:36;;;;;;;1.30;0.82;;;14.50;99.90;;;;;;5017964;28;20061;-64
2022/08/31 02:20:04;;;;;;;1.80;0.75;;;14.40;99.90;;;;;;5018042;28;20078;-64
2022/08/31 02:22:29;;;;;;;2.42;1.08;;;14.30;99.90;;;;;;5038212;28;20052;-64
2022/08/31 02:24:55;;;;;;;1.45;1.05;;;14.30;99.90;;;;;;5046977;28;20430;-64
2022/08/31 02:27:20;;;;;;;3.00;0.90;;;14.30;99.90;;;;;;5035662;28;20041;-64
2022/08/31 02:29:46;;;;;;;1.73;0.90;;;14.20;99.90;;;;;;5017966;28;20049;-64
2022/08/31 02:32:11;;;;;;;1.92;0.88;;;14.30;99.90;;;;;;5035689;28;20041;-64
2022/08/31 02:34:39;;;;;;;1.58;0.90;;;14.10;99.90;;;;;;5027914;28;20046;-64
2022/08/31 02:37:05;;;;;;;1.35;0.70;;;14.10;99.90;;;;;;5017683;28;20045;-64
2022/08/31 02:39:31;;;;;;;1.27;0.85;;;14.10;99.90;;;;;;5022403;28;20048;-64
2022/08/31 02:41:56;;;;;;;1.55;1.00;;;14.00;99.90;;;;;;5025832;28;20034;-64
2022/08/31 02:44:22;;;;;;;3.15;0.85;;;14.10;99.90;;;;;;5035586;28;20369;-64
2022/08/31 02:46:47;;;;;;;1.83;0.85;;;14.00;99.90;;;;;;5036805;28;20125;-64
2022/08/31 02:49:13;;;;;;;1.23;0.70;;;14.10;99.90;;;;;;5029908;28;20033;-64
2022/08/31 02:51:40;;;;;;;1.02;0.75;;;14.00;99.90;;;;;;5035267;28;20041;-64
2022/08/31 02:54:06;;;;;;;1.27;0.80;;;13.90;99.90;;;;;;5034880;28;20048;-65
2022/08/31 02:56:32;;;;;;;1.90;0.80;;;13.90;99.90;;;;;;5028791;28;20037;-64
2022/08/31 02:58:58;;;;;;;1.33;0.77;;;13.90;99.90;;;;;;5040860;28;20083;-64
2022/08/31 03:01:25;;;;;;;2.53;0.93;;;13.80;99.90;;;;;;5037368;28;20391;-64
2022/08/31 03:03:51;;;;;;;1.08;0.73;;;13.80;99.90;;;;;;5039025;28;20460;-64
2022/08/31 03:06:17;;;;;;;1.23;0.55;;;13.80;99.90;;;;;;5034645;28;20108;-64
2022/08/31 03:08:43;;;;;;;1.23;0.60;;;13.60;99.90;;;;;;5016937;28;20049;-64
2022/08/31 03:11:09;;;;;;;1.45;0.80;;;13.70;99.90;;;;;;5039859;28;20455;-64
2022/08/31 03:13:36;;;;;;;0.77;0.70;;;13.70;99.90;;;;;;5043510;28;20048;-64
2022/08/31 03:16:03;;;;;;;2.00;0.70;;;13.70;99.90;;;;;;5034627;28;20037;-64
2022/08/31 03:18:29;;;;;;;2.03;0.65;;;13.50;99.90;;;;;;5034787;28;20113;-64
2022/08/31 03:20:54;;;;;;;2.30;0.70;;;13.60;99.90;;;;;;5030558;28;20125;-64
2022/08/31 03:23:20;;;;;;;1.25;0.47;;;13.50;99.90;;;;;;5042195;28;20036;-64
2022/08/31 03:25:46;;;;;;;0.90;0.60;;;13.60;99.90;;;;;;5040873;28;20038;-64
2022/08/31 03:28:11;;;;;;;2.15;0.60;;;13.50;99.90;;;;;;5034325;28;20490;-64
2022/08/31 03:30:38;;;;;;;1.35;0.80;;;13.40;99.90;;;;;;5034591;28;20037;-64
2022/08/31 03:33:03;;;;;;;0.93;0.57;;;13.30;99.90;;;;;;5016510;28;20041;-64
2022/08/31 03:35:29;;;;;;;2.80;0.60;;;13.30;99.90;;;;;;5034250;28;20052;-64
2022/08/31 03:37:55;;;;;;;0.82;0.52;;;13.40;99.90;;;;;;5048142;28;20083;-64
2022/08/31 03:40:21;;;;;;;1.42;0.90;;;13.30;99.90;;;;;;5034251;28;20033;-64
2022/08/31 03:42:46;;;;;;;1.77;0.70;;;13.20;99.90;;;;;;5034005;28;20033;-64
2022/08/31 03:45:12;;;;;;;3.30;0.80;;;13.00;99.90;;;;;;5016301;28;20488;-64
2022/08/31 03:47:39;;;;;;;1.13;0.70;;;13.00;99.90;;;;;;5044870;28;20051;-64
2022/08/31 03:50:06;;;;;;;1.17;0.65;;;13.00;99.90;;;;;;5037209;28;20049;-64
2022/08/31 03:52:32;;;;;;;1.20;0.75;;;13.10;99.90;;;;;;5033437;28;20091;-64
2022/08/31 03:54:57;;;;;;;0.80;0.50;;;13.00;99.90;;;;;;5015543;28;20060;-64
2022/08/31 03:57:23;;;;;;;0.93;0.52;;;13.20;99.90;;;;;;5006706;28;20407;-64
2022/08/31 03:59:53;;;;;;;1.33;0.77;;;13.00;99.90;;;;;;5040974;28;20099;-64
2022/08/31 04:02:19;;;;;;;1.60;0.73;;;12.90;99.90;;;;;;5015751;28;20085;-64
2022/08/31 04:04:52;;;;;;;1.35;0.60;;;12.90;99.90;;;;;;5015911;28;20052;-64
2022/08/31 04:07:19;;;;;;;0.93;0.70;;;13.10;99.90;;;;;;5033617;28;20045;-64
2022/08/31 04:09:46;;;;;;;1.73;0.65;;;13.00;99.90;;;;;;5033613;28;20045;-64
2022/08/31 04:12:13;;;;;;;1.67;1.30;;;12.90;99.90;;;;;;5033711;28;20128;-64
2022/08/31 04:14:39;;;;;;;1.90;0.68;;;12.80;99.90;;;;;;5033737;28;20041;-64
2022/08/31 04:17:05;;;;;;;2.35;1.20;;;12.80;99.90;;;;;;5033353;28;20513;-64
2022/08/31 04:19:30;;;;;;;0.88;0.73;;;12.90;99.90;;;;;;5015715;28;20042;-64
2022/08/31 04:21:56;;;;;;;4.05;0.77;;;12.80;99.90;;;;;;5033376;28;20038;-64
2022/08/31 04:24:22;;;;;;;1.65;1.05;;;12.90;99.90;;;;;;5033298;28;20105;-64
2022/08/31 04:26:51;;;;;;;2.47;0.65;;;12.70;99.90;;;;;;5033727;28;20500;-64
2022/08/31 04:29:16;;;;;;;2.15;0.70;;;12.90;99.90;;;;;;5015846;28;20392;-64
2022/08/31 04:31:42;;;;;;;1.63;1.17;;;12.80;99.90;;;;;;5042696;28;20047;-63
2022/08/31 04:34:08;;;;;;;3.33;1.10;;;12.70;99.90;;;;;;5019782;28;20045;-64
2022/08/31 04:36:34;;;;;;;1.30;0.65;;;13.00;99.90;;;;;;5015706;28;20095;-64
2022/08/31 04:39:02;;;;;;;2.40;0.70;;;12.70;99.90;;;;;;5033187;28;20037;-64
2022/08/31 04:41:30;;;;;;;0.85;0.80;;;12.80;99.90;;;;;;5033123;28;20052;-64
2022/08/31 04:43:57;;;;;;;3.17;0.80;;;12.70;99.90;;;;;;5033253;28;20041;-64
2022/08/31 04:46:23;;;;;;;1.75;0.80;;;12.60;99.90;;;;;;5015266;28;20045;-64
2022/08/31 04:48:50;;;;;;;3.13;0.90;;;12.60;99.90;;;;;;5033057;28;20033;-64
2022/08/31 04:51:25;;;;;;;2.67;0.70;;;12.60;99.90;;;;;;5027663;28;20041;-64
2022/08/31 04:53:52;;;;;;;1.52;0.70;;;12.60;99.90;;;;;;5032903;28;20112;-64
2022/08/31 04:56:22;;;;;;;2.17;0.82;;;12.50;99.90;;;;;;5033081;28;20049;-64
2022/08/31 04:58:52;;;;;;;1.52;0.80;;;12.60;99.90;;;;;;5019943;28;20091;-64
2022/08/31 05:01:21;;;;;;;1.30;0.60;;;12.50;99.90;;;;;;5041618;28;20045;-64
2022/08/31 05:03:51;;;;;;;2.45;0.90;;;12.50;99.90;;;;;;5032554;28;20041;-64
2022/08/31 05:06:20;;;;;;;1.08;0.60;;;12.50;99.90;;;;;;5015182;28;20048;-64
2022/08/31 05:08:46;;;;;;;1.45;0.80;;;12.70;99.90;;;;;;5032911;28;20121;-64
2022/08/31 05:11:16;;;;;;;2.10;0.82;;;12.40;99.90;;;;;;5032705;28;20494;-64
2022/08/31 05:13:41;;;;;;;2.17;1.00;;;12.40;99.90;;;;;;5032750;28;20112;-64
2022/08/31 05:16:09;;;;;;;1.40;0.80;;;12.70;99.90;;;;;;5015063;28;20501;-64
2022/08/31 05:18:43;;;;;;;1.73;0.98;;;12.40;99.90;;;;;;5032691;28;20033;-63
2022/08/31 05:21:24;;;;;;;2.58;0.90;;;12.60;99.90;;;;;;5015016;28;20044;-64
2022/08/31 05:23:50;;;;;;;3.15;0.95;;;12.50;99.90;;;;;;5032648;28;20045;-64
2022/08/31 05:26:21;;;;;;;2.17;1.10;;;12.60;99.90;;;;;;5015029;28;20041;-64
2022/08/31 05:28:47;;;;;;;2.28;1.00;;;12.60;99.90;;;;;;5046141;28;20060;-64
2022/08/31 05:31:13;;;;;;;1.70;0.90;;;12.60;99.90;;;;;;5032847;28;20043;-64
2022/08/31 05:33:40;;;;;;;1.70;0.95;;;12.60;99.90;;;;;;5032560;28;20044;-64
2022/08/31 05:36:07;;;;;;;1.73;1.00;;;12.70;99.90;;;;;;5018398;28;20384;-64
2022/08/31 05:38:33;;;;;;;2.20;1.00;;;12.70;99.90;;;;;;5052390;28;20033;-64
2022/08/31 05:40:59;;;;;;;1.73;0.90;;;12.90;99.90;;;;;;5036344;28;20049;-64
2022/08/31 05:43:25;;;;;;;2.40;1.35;;;12.70;99.90;;;;;;5032448;28;20103;-64
2022/08/31 05:45:51;;;;;;;1.20;0.75;;;12.90;99.90;;;;;;5014971;28;20045;-64
2022/08/31 05:48:17;;;;;;;3.13;1.00;;;12.90;99.90;;;;;;5032407;28;20104;-64
2022/08/31 05:50:42;;;;;;;2.25;1.00;;;12.90;99.90;;;;;;5015025;28;20403;-64
2022/08/31 05:53:08;;;;;;;1.55;0.70;;;13.10;99.90;;;;;;5014697;28;20080;-63
2022/08/31 05:55:34;;;;;;;2.65;0.90;;;13.20;99.90;;;;;;5032421;28;20034;-64
2022/08/31 05:58:00;;;;;;;4.47;1.02;;;13.50;99.90;;;;;;5032413;28;20053;-64
2022/08/31 06:00:26;;;;;;;2.60;0.77;;;13.50;99.90;;;;;;5014646;28;20037;-64
2022/08/31 06:02:52;;;;;;;1.95;0.80;;;;;;;;;;5032074;28;20049;-63
2022/08/31 06:05:19;;;;;;;1.67;0.80;;;13.80;99.90;;;;;;5032449;28;20049;-63
2022/08/31 06:07:46;;;;;;;2.90;0.70;;;13.70;99.90;;;;;;5014345;28;20049;-64
2022/08/31 06:10:13;;;;;;;3.03;0.75;;;13.90;99.90;;;;;;5031860;28;20522;-64
2022/08/31 06:12:41;;;;;;;2.13;0.93;;;14.00;99.90;;;;;;5032072;28;20048;-64
2022/08/31 06:15:08;;;;;;;1.33;0.80;;;14.70;99.90;;;;;;5032035;28;20030;-64
2022/08/31 06:17:34;;;;;;;2.25;1.00;;;14.90;99.90;;;;;;5016184;28;20044;-64
2022/08/31 06:20:00;;;;;;;1.05;0.52;;;14.90;99.90;;;;;;5035264;28;20044;-64
2022/08/31 06:22:26;;;;;;;3.40;0.75;;;15.10;99.90;;;;;;5035082;28;20037;-64
2022/08/31 06:24:51;;;;;;;2.05;1.05;;;15.30;99.90;;;;;;5035109;28;20037;-64
2022/08/31 06:27:17;;;;;;;2.95;0.98;;;15.30;99.90;;;;;;5014458;28;20052;-64
2022/08/31 06:29:44;;;;;;;3.20;0.90;;;15.50;99.90;;;;;;5034929;28;20065;-64
2022/08/31 06:32:12;;;;;;;0.93;0.70;;;15.60;99.90;;;;;;5034804;28;20091;-64
2022/08/31 06:34:39;;;;;;;2.00;0.60;;;15.50;99.90;;;;;;5034884;28;20049;-64
2022/08/31 06:37:07;;;;;;;2.72;0.70;;;15.80;99.90;;;;;;4998398;28;20484;-64
2022/08/31 06:39:33;;;;;;;3.65;0.85;;;16.00;99.90;;;;;;5034770;28;20117;-65
2022/08/31 06:41:58;;;;;;;1.55;1.00;;;16.20;99.90;;;;;;5032888;28;20117;-65
2022/08/31 06:44:25;;;;;;;2.97;1.02;;;16.50;99.90;;;;;;5016520;28;20038;-65
2022/08/31 06:46:51;;;;;;;1.95;0.70;;;16.60;99.90;;;;;;5033127;28;20037;-65
2022/08/31 06:49:18;;;;;;;2.47;0.80;;;16.50;99.90;;;;;;5015472;28;20033;-65
2022/08/31 06:51:44;;;;;;;3.97;1.10;;;17.00;99.90;;;;;;5001425;28;20038;-65
2022/08/31 06:54:16;;;;;;;2.15;0.60;;;16.70;99.90;;;;;;4997921;28;20038;-65
2022/08/31 06:56:42;;;;;;;2.47;1.10;;;17.00;99.90;;;;;;5018184;28;20038;-65
2022/08/31 06:59:09;;;;;;;1.50;0.60;;;17.40;99.90;;;;;;4997721;28;20046;-65
2022/08/31 07:01:35;;;;;;;1.38;0.63;;;17.40;99.90;;;;;;5016377;28;20033;-65
2022/08/31 07:04:04;;;;;;;2.85;0.80;;;17.20;99.90;;;;;;4994922;28;20050;-65
2022/08/31 07:06:41;;;;;;;1.50;0.52;;;17.50;99.90;;;;;;5001454;28;20033;-65
2022/08/31 07:09:10;;;;;;;2.92;0.90;;;17.80;99.90;;;;;;5014957;28;20065;-65
2022/08/31 07:11:42;;;;;;;1.10;0.60;;;17.50;99.90;;;;;;5013387;28;20484;-65
2022/08/31 07:14:11;;;;;;;2.35;0.50;;;17.70;99.90;;;;;;5013256;28;20038;-65
2022/08/31 07:16:37;;;;;;;2.30;0.95;;;17.70;99.90;;;;;;5013158;28;20056;-65
2022/08/31 07:19:05;;;;;;;1.85;0.65;;;18.00;99.90;;;;;;5014638;28;20129;-65
2022/08/31 07:21:34;;;;;;;2.30;0.60;;;18.10;99.90;;;;;;5014585;28;20108;-65
2022/08/31 07:24:01;;;;;;;1.85;0.60;;;17.90;99.90;;;;;;5014562;28;20046;-65
2022/08/31 07:26:32;;;;;;;2.63;0.80;;;17.80;99.90;;;;;;5013529;28;20092;-65
2022/08/31 07:28:58;;;;;;;1.33;0.68;;;17.90;99.90;;;;;;5013009;28;20045;-65
2022/08/31 07:31:26;;;;;;;1.48;0.60;;;18.00;99.90;;;;;;5014445;28;20038;-65
2022/08/31 07:33:54;;;;;;;3.05;0.75;;;18.00;99.90;;;;;;5014489;28;20034;-65
2022/08/31 07:36:22;;;;;;;1.58;0.63;;;18.00;99.90;;;;;;5014261;28;20038;-65
2022/08/31 07:44:19;;;;;;;1.50;0.80;;;18.10;99.90;;;;;;5013248;28;20484;-65
2022/08/31 07:46:46;;;;;;;3.05;0.70;;;18.20;99.90;;;;;;5013303;28;20439;-66
2022/08/31 07:49:13;;;;;;;1.88;0.60;;;18.00;99.90;;;;;;5022450;28;20120;-65
2022/08/31 07:51:42;;;;;;;6.45;1.13;;;18.40;99.90;;;;;;5018435;28;20048;-66
2022/08/31 07:54:09;;;;;;;2.40;0.80;;;18.40;99.90;;;;;;5014336;28;20107;-66
2022/08/31 07:56:36;;;;;;;4.03;0.55;;;18.30;99.90;;;;;;5014220;28;20050;-65
2022/08/31 07:59:06;;;;;;;1.10;0.57;;;18.50;99.90;;;;;;5014105;28;20065;-66
2022/08/31 08:01:33;;;;;;;1.42;0.60;;;18.40;99.90;;;;;;5012963;28;20050;-66
2022/08/31 08:04:00;;;;;;;1.92;0.43;;;18.20;99.90;;;;;;5012557;28;20473;-65
2022/08/31 08:06:27;;;;;;;1.67;0.40;;;18.20;99.90;;;;;;5012618;28;20068;-65
2022/08/31 08:08:53;;;;;;;1.23;0.88;;;18.50;99.90;;;;;;5013911;28;20131;-65
2022/08/31 08:11:20;;;;;;;3.08;0.80;;;18.50;99.90;;;;;;5014056;28;20081;-65
2022/08/31 08:13:47;;;;;;;2.03;0.55;;;18.50;99.90;;;;;;5015770;28;20404;-65
2022/08/31 08:16:13;;;;;;;3.50;0.60;;;18.60;99.90;;;;;;5025746;28;20052;-66
2022/08/31 08:18:39;;;;;;;1.80;0.50;;;18.60;99.90;;;;;;5012533;28;20542;-65
2022/08/31 08:21:05;;;;;;;1.08;0.45;;;18.70;99.90;;;;;;5012427;28;20038;-66
2022/08/31 08:23:31;;;;;;;1.80;0.55;;;18.70;99.90;;;;;;5013975;28;20033;-66
2022/08/31 08:25:59;;;;;;;1.38;0.43;;;18.70;99.90;;;;;;5013766;28;20065;-66
2022/08/31 08:28:29;;;;;;;2.38;0.50;;;18.90;99.90;;;;;;5012502;28;20411;-65
2022/08/31 08:30:59;;;;;;;1.70;0.30;;;18.90;99.90;;;;;;5013506;28;20096;-66
2022/08/31 08:33:27;;;;;;;2.53;0.50;;;18.90;99.90;;;;;;5013502;28;20069;-66
2022/08/31 08:35:58;;;;;;;2.47;0.43;;;19.20;99.90;;;;;;5014038;28;20100;-66
2022/08/31 08:38:29;;;;;;;2.60;0.50;;;19.20;99.90;;;;;;5024809;28;20053;-66
2022/08/31 08:41:00;;;;;;;2.15;0.40;;;19.00;99.90;;;;;;5012829;28;20034;-65
2022/08/31 08:43:32;;;;;;;5.07;0.60;;;19.10;99.90;;;;;;5012154;28;20452;-66
2022/08/31 08:46:00;;;;;;;1.17;0.40;;;19.20;99.90;;;;;;5022710;28;20553;-66
2022/08/31 08:48:28;;;;;;;2.83;0.52;;;19.20;99.90;;;;;;5014327;28;20048;-66
2022/08/31 08:50:54;;;;;;;3.33;0.43;;;19.60;99.90;;;;;;5012882;28;20038;-65
2022/08/31 08:53:23;;;;;;;7.00;0.52;;;20.00;99.90;;;;;;4994676;28;20038;-66
2022/08/31 08:55:50;;;;;;;2.78;0.93;;;19.30;99.90;;;;;;5006826;28;20050;-66
2022/08/31 08:58:17;;;;;;;1.08;0.75;;;19.40;99.90;;;;;;5011789;28;20044;-65
2022/08/31 09:00:49;;;;;;;7.55;0.65;;;19.30;99.90;;;;;;5011675;28;20403;-66
2022/08/31 09:03:55;;;;;;;2.30;0.40;;;19.70;99.90;;;;;;5019733;28;20503;-65
2022/08/31 09:06:53;;;;;;;2.00;0.45;;;19.60;99.90;;;;;;4983329;28;20507;-65
2022/08/31 09:09:39;;;;;;;1.13;0.45;;;19.60;99.90;;;;;;5009247;28;20124;-65
2022/08/31 09:12:07;;;;;;;0.90;0.35;;;19.70;99.90;;;;;;5032724;28;20084;-66
2022/08/31 09:15:02;;;;;;;2.40;0.70;;;19.60;99.90;;;;;;5014639;28;20052;-66
2022/08/31 09:17:49;;;;;;;0.55;0.30;;;19.50;99.90;;;;;;5032764;28;20095;-66
2022/08/31 09:20:16;;;;;;;1.10;0.45;;;19.80;99.90;;;;;;5026116;28;20084;-66
2022/08/31 09:22:47;;;;;;;2.45;0.70;;;20.50;99.90;;;;;;5032511;28;20063;-66
2022/08/31 09:25:31;;;;;;;2.80;0.60;;;20.00;99.90;;;;;;5032615;28;20069;-65
2022/08/31 09:28:06;;;;;;;1.33;0.50;;;20.20;99.90;;;;;;5026600;28;20045;-66
2022/08/31 09:30:39;;;;;;;3.25;0.40;;;20.40;99.90;;;;;;5026468;28;20040;-65
2022/08/31 09:33:06;;;;;;;4.00;0.40;;;20.30;99.90;;;;;;5032339;28;20030;-66
2022/08/31 09:35:41;;;;;;;1.70;0.50;;;20.30;99.90;;;;;;5008098;28;20053;-66
2022/08/31 09:38:28;;;;;;;2.90;0.50;;;20.90;99.90;;;;;;5008279;28;20042;-66
2022/08/31 09:40:54;;;;;;;1.92;0.40;;;20.80;99.90;;;;;;5010017;28;20091;-66
2022/08/31 09:43:23;;;;;;;3.15;0.60;;;20.80;99.90;;;;;;5032393;28;20038;-65
2022/08/31 09:46:23;;;;;;;1.55;0.22;;;21.00;99.90;;;;;;5014992;28;20124;-65
2022/08/31 09:48:54;;;;;;;2.22;0.30;;;21.00;99.90;;;;;;5014197;28;20104;-65
2022/08/31 09:51:41;;;;;;;0.52;0.20;;;21.20;99.90;;;;;;5016601;28;20049;-65
2022/08/31 09:57:09;;;;;;;1.13;0.30;;;21.50;99.90;;;;;;5017617;28;20041;-66
2022/08/31 09:59:43;;;;;;;6.55;0.40;;;21.60;99.90;;;;;;5017671;28;20476;-66
2022/08/31 10:02:26;;;;;;;0.70;0.20;;;21.60;99.90;;;;;;5009126;28;20054;-65
2022/08/31 10:04:55;;;;;;;1.75;0.30;;;21.60;99.90;;;;;;5018451;28;20049;-65
2022/08/31 10:07:43;;;;;;;2.03;0.38;;;21.70;99.90;;;;;;5000531;28;20116;-66
2022/08/31 10:10:30;;;;;;;3.03;0.35;;;21.80;99.90;;;;;;5018022;28;20414;-65
2022/08/31 10:13:12;;;;;;;1.33;0.40;;;22.40;99.90;;;;;;5033517;28;20472;-66
2022/08/31 10:15:51;;;;;;;1.38;0.30;;;21.70;99.90;;;;;;5017280;28;20499;-65
2022/08/31 10:18:49;;;;;;;0.68;0.43;;;22.00;99.90;;;;;;5033998;28;20495;-66
2022/08/31 10:21:20;;;;;;;2.75;0.40;;;21.70;99.90;;;;;;5035169;28;20502;-66
2022/08/31 10:24:19;;;;;;;1.27;0.52;;;22.00;99.90;;;;;;5016305;28;20048;-66
2022/08/31 10:26:52;;;;;;;2.13;0.30;;;22.10;99.90;;;;;;5034574;28;20048;-66
2022/08/31 10:29:51;;;;;;;4.35;0.90;;;22.30;99.90;;;;;;5016563;28;20073;-65
2022/08/31 10:32:38;;;;;;;2.60;0.30;;;22.00;99.90;;;;;;5012991;28;20404;-65
2022/08/31 10:35:16;;;;;;;1.58;0.40;;;22.30;99.90;;;;;;5030338;28;20041;-65
2022/08/31 10:38:25;;;;;;;4.57;0.50;;;21.90;99.90;;;;;;5034241;28;20044;-65
2022/08/31 10:41:06;;;;;;;2.15;0.38;;;21.90;99.90;;;;;;5017136;28;20455;-65
2022/08/31 10:44:00;;;;;;;2.05;0.32;;;21.80;99.90;;;;;;5022643;28;20119;-65
2022/08/31 10:46:29;;;;;;;2.00;0.30;;;21.70;99.90;;;;;;5054633;28;20037;-65
2022/08/31 10:48:57;;;;;;;0.57;0.20;;;21.70;99.90;;;;;;5042518;28;20040;-66
2022/08/31 10:51:45;;;;;;;0.88;0.30;;;21.70;99.90;;;;;;5054941;28;20037;-66
2022/08/31 10:54:27;;;;;;;2.95;0.28;;;21.70;99.90;;;;;;5006339;28;20072;-66
2022/08/31 10:56:58;;;;;;;0.85;0.40;;;21.70;99.90;;;;;;5037736;28;20111;-66
2022/08/31 10:59:48;;;;;;;1.45;0.30;;;21.50;99.90;;;;;;5027747;28;20045;-66
2022/08/31 11:02:45;;;;;;;3.72;0.32;;;21.40;99.90;;;;;;5034314;28;20049;-66
2022/08/31 11:05:17;;;;;;;1.52;0.40;;;21.40;99.90;;;;;;5018281;28;20042;-66
2022/08/31 11:08:11;;;;;;;1.42;0.20;;;21.30;99.90;;;;;;5042412;28;20514;-66
2022/08/31 11:10:37;;;;;;;3.25;0.70;;;21.30;99.90;;;;;;5038610;28;20506;-66
2022/08/31 11:13:10;;;;;;;1.95;0.40;;;21.70;99.90;;;;;;5027151;28;20045;-66
2022/08/31 11:15:57;;;;;;;1.30;0.40;;;21.40;99.90;;;;;;5037624;28;20131;-66
2022/08/31 11:18:49;;;;;;;0.70;0.30;;;21.60;99.90;;;;;;5042762;28;20049;-66
2022/08/31 11:21:35;;;;;;;0.93;0.20;;;21.40;99.90;;;;;;5024510;28;20040;-66
2022/08/31 11:24:21;;;;;;;1.27;0.30;;;21.40;99.90;;;;;;5020601;28;20133;-66
2022/08/31 11:26:55;;;;;;;0.68;0.20;;;21.40;99.90;;;;;;5030724;28;20059;-65
2022/08/31 11:29:42;;;;;;;1.08;0.30;;;21.50;99.90;;;;;;5035045;28;20098;-65
2022/08/31 11:32:22;;;;;;;0.68;0.30;;;21.70;99.90;;;;;;5022227;28;20124;-65
2022/08/31 11:34:53;;;;;;;1.48;0.50;;;21.70;99.90;;;;;;5031422;28;20038;-65
2022/08/31 11:37:49;;;;;;;2.42;0.40;;;21.60;99.90;;;;;;5034280;28;20117;-65
2022/08/31 11:40:41;;;;;;;2.20;0.30;;;21.70;99.90;;;;;;5006760;28;20038;-66
2022/08/31 11:43:13;;;;;;;0.57;0.40;;;21.40;99.90;;;;;;5016609;28;20099;-64
2022/08/31 11:45:39;;;;;;;4.57;0.40;;;21.70;99.90;;;;;;5016402;28;20057;-64
2022/08/31 11:48:11;;;;;;;1.17;0.30;;;21.70;99.90;;;;;;5016293;28;20072;-64
2022/08/31 11:51:00;;;;;;;2.45;0.38;;;21.70;99.90;;;;;;5034298;28;20413;-64
2022/08/31 11:53:34;;;;;;;1.48;0.30;;;21.50;99.90;;;;;;5016584;28;20396;-65
2022/08/31 11:56:02;;;;;;;0.77;0.20;;;22.90;99.90;;;;;;5033971;28;20045;-65
2022/08/31 11:58:34;;;;;;;1.70;0.30;;;21.90;99.90;;;;;;5034068;28;20045;-65
2022/08/31 12:01:27;;;;;;;0.45;0.20;;;21.60;99.90;;;;;;5034103;28;20042;-65
2022/08/31 12:04:02;;;;;;;3.55;0.30;;;21.90;99.90;;;;;;5015680;28;20518;-64
2022/08/31 12:06:28;;;;;;;1.70;0.20;;;22.20;99.90;;;;;;5033956;28;20508;-65
2022/08/31 12:09:29;;;;;;;1.08;0.35;;;21.90;99.90;;;;;;5047597;28;20163;-64
2022/08/31 12:12:23;;;;;;;3.70;0.30;;;22.00;99.90;;;;;;5010463;28;20428;-64
2022/08/31 12:15:14;;;;;;;2.63;0.27;;;22.00;99.90;;;;;;5015320;28;20475;-65
2022/08/31 12:18:05;;;;;;;2.25;0.40;;;22.20;99.90;;;;;;5015819;28;20287;-65
2022/08/31 12:23:41;;;;;;;2.15;0.30;;;21.90;99.90;;;;;;5033476;28;20041;-64
2022/08/31 12:26:44;;;;;;;0.47;0.22;;;21.90;99.90;;;;;;5015985;28;20087;-64
2022/08/31 12:29:35;;;;;;;0.60;0.20;;;22.20;99.90;;;;;;5018139;28;20049;-64
2022/08/31 12:32:21;;;;;;;2.35;0.40;;;22.40;99.90;;;;;;5040680;28;20033;-64
2022/08/31 12:35:18;;;;;;;2.55;0.30;;;22.20;99.90;;;;;;5015149;28;20034;-65
2022/08/31 12:37:55;;;;;;;2.63;0.40;;;22.20;99.90;;;;;;5006205;28;20058;-65
2022/08/31 12:40:23;;;;;;;1.95;0.20;;;22.00;99.90;;;;;;4996883;28;20472;-65
2022/08/31 12:43:16;;;;;;;0.80;0.30;;;22.10;99.90;;;;;;5008406;28;20048;-64
2022/08/31 12:45:58;;;;;;;1.05;0.30;;;22.00;99.90;;;;;;5005624;28;20037;-65
2022/08/31 12:49:01;;;;;;;0.47;0.25;;;22.30;99.90;;;;;;5032886;28;20045;-65
2022/08/31 12:51:47;;;;;;;1.40;0.60;;;22.10;99.90;;;;;;5027113;28;20069;-65
2022/08/31 12:54:44;;;;;;;1.70;0.20;;;22.30;99.90;;;;;;5012499;28;20037;-64
2022/08/31 12:57:44;;;;;;;0.70;0.20;;;22.20;99.90;;;;;;5033001;28;20034;-65
2022/08/31 13:00:26;;;;;;;0.70;0.38;;;22.00;99.90;;;;;;5028618;28;20372;-65
2022/08/31 13:02:57;;;;;;;0.73;0.30;;;22.30;99.90;;;;;;5032572;28;20134;-64
2022/08/31 13:05:33;;;;;;;1.25;0.30;;;22.50;99.90;;;;;;5032977;28;20045;-65
2022/08/31 13:07:59;;;;;;;4.43;0.35;;;22.30;99.90;;;;;;5032434;28;20127;-65
2022/08/31 13:10:37;;;;;;;1.77;0.38;;;22.30;99.90;;;;;;5032649;28;20038;-64
2022/08/31 13:13:18;;;;;;;1.75;0.13;;;22.40;99.90;;;;;;5014808;28;20060;-65
2022/08/31 13:15:44;;;;;;;2.72;0.40;;;22.30;99.90;;;;;;5032213;28;20400;-64
2022/08/31 13:18:13;;;;;;;2.35;0.22;;;22.30;99.90;;;;;;5015184;28;20037;-65
2022/08/31 13:20:42;;;;;;;1.17;0.30;;;23.40;99.90;;;;;;5032479;28;20530;-65
2022/08/31 13:23:10;;;;;;;1.85;0.25;;;23.70;99.90;;;;;;5032562;28;20030;-65
2022/08/31 13:25:37;;;;;;;3.47;0.40;;;22.40;99.90;;;;;;5033560;28;20120;-65